createdAt,value
2022-12-14T04:02:53.143Z,0.20
2022-12-14T04:05:48.904Z,0.30
2022-12-14T04:08:44.286Z,0.40
2022-12-14T04:11:34.133Z,0.50
2022-12-14T04:14:35.299Z,0.60
2022-12-14T04:17:37.088Z,0.60
2022-12-14T04:20:13.254Z,0.70
2022-12-14T04:22:48.468Z,0.80
2022-12-14T04:25:39.831Z,0.80
2022-12-14T04:28:41.075Z,0.80
2022-12-14T04:31:12.196Z,0.80
2022-12-14T04:33:46.851Z,0.90
2022-12-14T04:36:32.289Z,0.80
2022-12-14T04:39:05.528Z,0.70
2022-12-14T04:41:40.325Z,0.80
2022-12-14T04:44:21.234Z,0.70
2022-12-14T04:46:49.128Z,0.70
2022-12-14T04:49:24.183Z,0.70
2022-12-14T04:52:04.806Z,0.70
2022-12-14T04:54:40.814Z,0.80
2022-12-14T04:57:19.396Z,0.80
2022-12-14T04:59:48.712Z,0.70
2022-12-14T05:02:24.980Z,0.70
2022-12-14T05:05:03.843Z,0.30
2022-12-14T05:07:43.236Z,0.40
2022-12-14T05:10:30.944Z,0.50
2022-12-14T05:13:07.327Z,0.50
2022-12-14T05:15:40.333Z,0.60
2022-12-14T05:18:08.154Z,0.60
2022-12-14T05:20:35.367Z,0.70
2022-12-14T05:23:02.574Z,0.70
2022-12-14T05:25:30.071Z,0.60
2022-12-14T05:27:57.262Z,0.70
2022-12-14T05:30:24.717Z,0.70
2022-12-14T05:32:52.977Z,0.70
2022-12-14T05:35:20.717Z,0.80
2022-12-14T05:37:49.306Z,0.70
2022-12-14T05:40:16.932Z,0.70
2022-12-14T05:42:46.865Z,0.70
2022-12-14T05:45:17.095Z,0.90
2022-12-14T05:47:45.014Z,0.90
2022-12-14T05:50:12.261Z,0.90
2022-12-14T05:52:39.616Z,1.00
2022-12-14T05:55:07.396Z,1.10
2022-12-14T05:57:34.648Z,1.20
2022-12-14T06:00:02.270Z,1.10
2022-12-14T06:02:29.517Z,1.10
2022-12-14T06:04:56.765Z,1.20
2022-12-14T06:07:27.694Z,1.20
2022-12-14T06:09:55.594Z,1.30
2022-12-14T06:12:22.851Z,1.30
2022-12-14T06:14:50.064Z,1.30
2022-12-14T06:17:17.327Z,1.30
2022-12-14T06:19:49.621Z,1.40
2022-12-14T06:22:18.451Z,1.40
2022-12-14T06:24:45.882Z,1.40
2022-12-14T06:27:13.179Z,1.40
2022-12-14T06:29:40.449Z,1.40
2022-12-14T06:32:07.656Z,1.50
2022-12-14T06:34:39.137Z,1.40
2022-12-14T06:37:07.968Z,1.40
2022-12-14T06:39:35.136Z,1.50
2022-12-14T06:42:02.346Z,1.50
2022-12-14T06:44:29.529Z,1.40
2022-12-14T06:46:57.378Z,1.50
2022-12-14T06:49:24.681Z,1.40
2022-12-14T06:51:51.918Z,1.50
2022-12-14T06:54:19.641Z,1.50
2022-12-14T06:56:47.777Z,1.50
2022-12-14T06:59:15.919Z,1.50
2022-12-14T07:01:43.443Z,1.50
2022-12-14T07:04:10.733Z,1.50
2022-12-14T07:06:40.544Z,1.60
2022-12-14T07:09:12.031Z,1.50
2022-12-14T07:11:39.645Z,1.70
2022-12-14T07:14:07.328Z,1.70
2022-12-14T07:16:37.079Z,1.70
2022-12-14T07:19:04.975Z,1.60
2022-12-14T07:21:32.810Z,1.60
2022-12-14T07:24:01.235Z,1.60
2022-12-14T07:26:29.160Z,1.60
2022-12-14T07:29:00.606Z,1.70
2022-12-14T07:31:29.321Z,1.70
2022-12-14T07:33:58.979Z,1.80
2022-12-14T07:36:28.142Z,1.90
2022-12-14T07:38:55.884Z,1.90
2022-12-14T07:41:25.843Z,2.00
2022-12-14T07:43:55.153Z,2.00
2022-12-14T07:46:27.211Z,2.10
2022-12-14T07:48:56.781Z,2.10
2022-12-14T07:51:27.217Z,2.00
2022-12-14T07:53:54.892Z,2.10
2022-12-14T07:56:27.669Z,2.20
2022-12-14T07:58:57.136Z,2.20
2022-12-14T08:01:30.038Z,2.30
2022-12-14T08:04:06.217Z,2.30
2022-12-14T08:06:34.713Z,2.40
2022-12-14T08:09:02.751Z,2.30
2022-12-14T08:11:30.060Z,2.30
2022-12-14T08:13:59.492Z,2.40
2022-12-14T08:16:27.681Z,2.50
2022-12-14T08:18:56.841Z,2.50
2022-12-14T08:21:25.164Z,2.50
2022-12-14T08:23:53.882Z,2.40
2022-12-14T08:26:22.266Z,2.50
2022-12-14T08:28:49.608Z,2.50
2022-12-14T08:31:19.580Z,2.50
2022-12-14T08:33:48.695Z,2.70
2022-12-14T08:36:22.295Z,2.90
2022-12-14T08:38:57.664Z,2.90
2022-12-14T08:41:26.112Z,3.10
2022-12-14T08:43:56.356Z,3.20
2022-12-14T08:46:24.738Z,3.30
2022-12-14T08:48:54.969Z,3.40
2022-12-14T08:51:23.783Z,3.40
2022-12-14T08:53:52.231Z,3.30
2022-12-14T08:56:22.722Z,3.40
2022-12-14T08:58:50.366Z,3.40
2022-12-14T09:01:28.345Z,3.50
2022-12-14T09:04:08.264Z,3.60
2022-12-14T09:06:39.148Z,3.70
2022-12-14T09:09:13.696Z,3.70
2022-12-14T09:11:44.635Z,3.70
2022-12-14T09:14:12.123Z,3.90
2022-12-14T09:16:40.213Z,4.00
2022-12-14T09:19:07.707Z,4.00
2022-12-14T09:21:35.085Z,4.10
2022-12-14T09:24:02.489Z,3.90
2022-12-14T09:26:29.837Z,4.00
2022-12-14T09:28:58.182Z,4.10
2022-12-14T09:31:27.721Z,4.10
2022-12-14T09:33:55.217Z,4.10
2022-12-14T09:36:25.744Z,4.10
2022-12-14T09:38:57.570Z,3.90
2022-12-14T09:41:33.879Z,4.00
2022-12-14T09:44:19.885Z,4.00
2022-12-14T09:47:25.137Z,4.00
2022-12-14T09:50:15.699Z,4.00
2022-12-14T09:52:49.674Z,4.00
2022-12-14T09:55:41.249Z,4.10
2022-12-14T09:58:17.905Z,4.10
2022-12-14T10:01:05.392Z,4.20
2022-12-14T10:03:55.000Z,4.20
2022-12-14T10:06:28.797Z,4.10
2022-12-14T10:09:14.497Z,4.00
2022-12-14T10:12:05.012Z,3.70
2022-12-14T10:14:47.278Z,3.80
2022-12-14T10:17:31.843Z,4.00
2022-12-14T10:20:23.087Z,4.00
2022-12-14T10:22:52.714Z,3.80
2022-12-14T10:25:24.827Z,3.70
2022-12-14T10:28:15.768Z,3.70
2022-12-14T10:33:26.288Z,3.80
2022-12-14T10:36:10.136Z,3.90
2022-12-14T10:38:43.377Z,4.00
2022-12-14T10:41:16.549Z,4.10
2022-12-14T10:43:56.164Z,4.10
2022-12-14T10:46:49.720Z,4.30
2022-12-14T10:49:24.527Z,4.60
2022-12-14T10:52:02.049Z,4.70
2022-12-14T10:54:38.595Z,4.90
2022-12-14T10:57:06.274Z,4.90
2022-12-14T10:59:40.597Z,4.90
2022-12-14T11:02:15.796Z,4.80
2022-12-14T11:04:50.694Z,4.70
2022-12-14T11:07:24.247Z,4.80
2022-12-14T11:09:52.243Z,4.70
2022-12-14T11:12:27.500Z,4.70
2022-12-14T11:15:01.773Z,4.70
2022-12-14T11:17:42.516Z,4.50
2022-12-14T11:20:23.215Z,4.50
2022-12-14T11:23:06.794Z,4.30
2022-12-14T11:25:51.284Z,4.40
2022-12-14T11:28:22.994Z,4.40
2022-12-14T11:30:57.782Z,4.50
2022-12-14T11:33:31.708Z,4.30
2022-12-14T11:35:59.234Z,4.30
2022-12-14T11:38:30.153Z,4.30
2022-12-14T11:40:59.560Z,4.40
2022-12-14T11:43:35.270Z,4.40
2022-12-14T11:46:02.779Z,4.40
2022-12-14T11:48:30.937Z,4.50
2022-12-14T11:51:13.179Z,4.70
2022-12-14T11:53:41.492Z,4.90
2022-12-14T11:56:16.090Z,5.30
2022-12-14T11:58:52.901Z,5.70
2022-12-14T12:01:26.319Z,6.30
2022-12-14T12:03:57.650Z,6.50
2022-12-14T12:06:27.933Z,6.70
2022-12-14T12:09:03.473Z,6.70
2022-12-14T12:11:33.519Z,6.50
2022-12-14T12:14:03.411Z,6.40
2022-12-14T12:16:32.876Z,6.20
2022-12-14T12:19:30.579Z,6.20
2022-12-14T12:22:00.834Z,6.30
2022-12-14T12:25:24.942Z,6.40
2022-12-14T12:28:14.228Z,6.40
2022-12-14T12:30:47.203Z,6.40
2022-12-14T12:33:29.273Z,6.50
2022-12-14T12:36:02.942Z,6.60
2022-12-14T12:38:33.093Z,6.70
2022-12-14T12:41:28.501Z,6.80
2022-12-14T12:44:19.366Z,6.80
2022-12-14T12:47:34.733Z,6.80
2022-12-14T12:50:04.871Z,6.80
2022-12-14T12:52:50.088Z,6.80
2022-12-14T12:55:19.859Z,6.60
2022-12-14T12:57:51.083Z,6.60
2022-12-14T13:00:20.644Z,6.60
2022-12-14T13:03:08.947Z,6.70
2022-12-14T13:05:48.859Z,6.60
2022-12-14T13:08:40.117Z,6.70
2022-12-14T13:11:28.048Z,6.70
2022-12-14T13:14:33.900Z,6.70
2022-12-14T13:17:05.325Z,6.70
2022-12-14T13:19:50.493Z,6.70
2022-12-14T13:22:31.685Z,6.80
2022-12-14T13:25:20.471Z,6.80
2022-12-14T13:28:02.497Z,6.80
2022-12-14T13:30:53.234Z,6.80
2022-12-14T13:33:42.638Z,6.80
2022-12-14T13:36:31.161Z,6.90
2022-12-14T13:39:12.911Z,6.90
2022-12-14T13:42:11.843Z,6.90
2022-12-14T13:44:54.076Z,6.80
2022-12-14T13:47:43.308Z,6.70
2022-12-14T13:50:35.780Z,6.50
2022-12-14T13:53:12.412Z,6.30
2022-12-14T13:56:00.331Z,6.20
2022-12-14T13:58:32.426Z,6.10
2022-12-14T14:01:02.256Z,5.90
2022-12-14T14:03:35.733Z,5.70
2022-12-14T14:06:12.073Z,5.00
2022-12-14T14:08:42.615Z,4.90
2022-12-14T14:14:42.328Z,4.90
2022-12-14T14:17:22.907Z,5.00
2022-12-14T14:19:53.862Z,5.00
2022-12-14T14:22:29.020Z,5.10
2022-12-14T14:25:13.025Z,5.10
2022-12-14T14:27:50.365Z,5.00
2022-12-14T14:30:36.271Z,4.90
2022-12-14T14:33:44.906Z,5.00
2022-12-14T14:36:33.533Z,4.90
2022-12-14T14:39:10.676Z,4.90
2022-12-14T14:41:53.078Z,4.90
2022-12-14T14:44:43.620Z,4.90
2022-12-14T14:47:19.805Z,4.90
2022-12-14T14:49:54.798Z,4.90
2022-12-14T14:52:40.240Z,4.90
2022-12-14T14:55:52.036Z,4.80
2022-12-14T14:58:24.502Z,4.80
2022-12-14T15:01:22.413Z,4.80
2022-12-14T15:04:19.867Z,4.80
2022-12-14T15:06:54.784Z,4.80
2022-12-14T15:09:37.315Z,4.80
2022-12-14T15:12:33.136Z,4.80
2022-12-14T15:15:24.175Z,4.80
2022-12-14T15:17:51.540Z,4.80
2022-12-14T15:20:29.612Z,4.80
2022-12-14T15:22:57.313Z,4.80
2022-12-14T15:25:24.568Z,4.80
2022-12-14T15:27:53.068Z,4.80
2022-12-14T15:30:28.168Z,4.80
2022-12-14T15:33:06.595Z,4.80
2022-12-14T15:35:39.977Z,4.80
2022-12-14T15:38:14.731Z,4.90
2022-12-14T15:40:57.528Z,4.90
2022-12-14T15:43:26.947Z,4.80
2022-12-14T15:46:03.072Z,4.80
2022-12-14T15:48:34.801Z,4.80
2022-12-14T15:51:05.686Z,4.80
2022-12-14T15:53:43.009Z,4.70
2022-12-14T15:56:27.175Z,4.80
2022-12-14T15:58:56.140Z,4.80
2022-12-14T16:01:33.007Z,4.80
2022-12-14T16:04:09.836Z,4.70
2022-12-14T16:06:42.291Z,4.80
2022-12-14T16:09:43.663Z,4.80
2022-12-14T16:12:45.164Z,4.80
2022-12-14T16:15:36.074Z,4.80
2022-12-14T16:18:03.992Z,4.70
2022-12-14T16:20:37.068Z,4.70
2022-12-14T16:23:15.500Z,4.80
2022-12-14T16:25:58.140Z,4.80
2022-12-14T16:28:27.214Z,4.80
2022-12-14T16:31:02.729Z,4.80
2022-12-14T16:33:33.441Z,4.80
2022-12-14T16:36:06.242Z,4.80
2022-12-14T16:38:55.346Z,4.90
2022-12-14T16:41:44.206Z,4.80
2022-12-14T16:44:23.525Z,4.80
2022-12-14T16:47:02.686Z,4.90
2022-12-14T16:49:34.151Z,4.90
2022-12-14T16:52:16.409Z,4.90
2022-12-14T16:54:43.865Z,4.90
2022-12-14T16:57:24.168Z,5.00
2022-12-14T17:00:03.979Z,5.00
2022-12-14T17:02:38.711Z,5.10
2022-12-14T17:05:16.230Z,5.10
2022-12-14T17:07:43.628Z,5.10
2022-12-14T17:10:23.663Z,5.10
2022-12-14T17:12:53.524Z,5.10
2022-12-14T17:15:23.151Z,5.10
2022-12-14T17:17:53.248Z,5.10
2022-12-14T17:20:30.523Z,5.20
2022-12-14T17:23:02.028Z,5.10
2022-12-14T17:25:31.277Z,5.10
2022-12-14T17:27:59.766Z,5.10
2022-12-14T17:30:27.284Z,5.10
2022-12-14T17:32:55.596Z,5.10
2022-12-14T17:35:29.871Z,5.20
2022-12-14T17:37:57.571Z,5.20
2022-12-14T17:40:25.345Z,5.20
2022-12-14T17:42:56.180Z,5.10
2022-12-14T17:45:32.362Z,5.10
2022-12-14T17:47:59.615Z,5.10
2022-12-14T17:50:26.838Z,5.10
2022-12-14T17:52:54.183Z,5.20
2022-12-14T17:55:27.043Z,5.10
2022-12-14T17:57:55.584Z,5.10
2022-12-14T18:00:44.535Z,5.10
2022-12-14T18:03:13.736Z,5.10
2022-12-14T18:05:48.298Z,5.10
2022-12-14T18:08:19.491Z,5.10
2022-12-14T18:10:49.976Z,5.10
2022-12-14T18:13:17.329Z,5.10
2022-12-14T18:15:50.075Z,5.20
2022-12-14T18:18:20.175Z,5.10
2022-12-14T18:20:54.012Z,5.20
2022-12-14T18:23:22.178Z,5.20
2022-12-14T18:25:52.715Z,5.10
2022-12-14T18:28:20.857Z,5.10
2022-12-14T18:30:52.329Z,5.20
2022-12-14T18:33:25.560Z,5.20
2022-12-14T18:35:54.686Z,5.20
2022-12-14T18:38:22.091Z,5.20
2022-12-14T18:40:51.594Z,5.10
2022-12-14T18:43:23.535Z,5.20
2022-12-14T18:45:52.778Z,5.20
2022-12-14T18:48:20.708Z,5.20
2022-12-14T18:50:49.895Z,5.20
2022-12-14T18:53:22.954Z,5.20
2022-12-14T18:55:50.386Z,5.30
2022-12-14T18:58:19.005Z,5.30
2022-12-14T19:00:47.021Z,5.30
2022-12-14T19:03:17.457Z,5.30
2022-12-14T19:05:45.370Z,5.30
2022-12-14T19:08:12.952Z,5.30
2022-12-14T19:10:47.875Z,5.30
2022-12-14T19:13:26.024Z,5.30
2022-12-14T19:15:54.277Z,5.30
2022-12-14T19:18:21.672Z,5.30
2022-12-14T19:20:49.768Z,5.30
2022-12-14T19:23:18.842Z,5.30
2022-12-14T19:25:46.848Z,5.30
2022-12-14T19:28:31.550Z,5.30
2022-12-14T19:31:00.896Z,5.30
2022-12-14T19:33:29.117Z,5.30
2022-12-14T19:35:56.712Z,5.30
2022-12-14T19:38:24.000Z,5.30
2022-12-14T19:41:03.522Z,5.30
2022-12-14T19:43:31.720Z,5.30
2022-12-14T19:45:59.386Z,5.30
2022-12-14T19:48:26.781Z,5.30
2022-12-14T19:50:54.025Z,5.30
2022-12-14T19:53:28.087Z,5.30
2022-12-14T19:55:55.521Z,5.30
2022-12-14T19:58:24.957Z,5.30
2022-12-14T20:00:52.957Z,5.30
2022-12-14T20:03:20.366Z,5.30
2022-12-14T20:05:55.951Z,5.30
2022-12-14T20:08:23.777Z,5.30
2022-12-14T20:10:54.528Z,5.30
2022-12-14T20:13:23.349Z,5.00
2022-12-14T20:15:55.324Z,5.20
2022-12-14T20:18:22.995Z,5.20
2022-12-14T20:20:51.215Z,5.20
2022-12-14T20:23:21.506Z,5.20
2022-12-14T20:25:49.484Z,5.30
2022-12-14T20:28:16.837Z,5.30
2022-12-14T20:30:47.636Z,5.20
2022-12-14T20:33:15.064Z,5.10
2022-12-14T20:35:42.296Z,5.10
2022-12-14T20:38:09.611Z,5.00
2022-12-14T20:40:38.835Z,5.10
2022-12-14T20:43:07.482Z,5.00
2022-12-14T20:45:42.612Z,5.00
2022-12-14T20:48:10.132Z,5.00
2022-12-14T20:50:39.460Z,4.90
2022-12-14T20:53:06.975Z,4.90
2022-12-14T20:55:35.433Z,4.90
2022-12-14T20:58:02.787Z,4.90
2022-12-14T21:00:30.449Z,4.90
2022-12-14T21:02:57.981Z,4.90
2022-12-14T21:05:25.436Z,4.90
2022-12-14T21:07:52.737Z,4.90
2022-12-14T21:10:20.041Z,4.90
2022-12-14T21:12:50.117Z,4.80
2022-12-14T21:15:17.413Z,4.80
2022-12-14T21:17:44.799Z,4.80
2022-12-14T21:20:12.701Z,4.80
2022-12-14T21:22:40.004Z,4.70
2022-12-14T21:25:07.994Z,4.40
2022-12-14T21:27:38.408Z,4.40
2022-12-14T21:30:08.409Z,4.40
2022-12-14T21:32:37.249Z,4.20
2022-12-14T21:35:05.669Z,4.10
2022-12-14T21:37:32.949Z,3.90
2022-12-14T21:40:03.199Z,3.90
2022-12-14T21:42:30.573Z,3.70
2022-12-14T21:44:57.936Z,3.70
2022-12-14T21:47:29.542Z,3.70
2022-12-14T21:49:57.574Z,3.70
2022-12-14T21:52:27.255Z,3.70
2022-12-14T21:54:54.632Z,3.70
2022-12-14T21:57:49.443Z,3.60
2022-12-14T22:00:18.320Z,3.60
